Time;durP1;ratioP1;P1;durP2;ratioP2;P2;SDS_P1;SDS_P2;PMS_P1;PMS_P2;Temp;Humidity;BMP_temperature;BMP_pressure;BME280_temperature;BME280_humidity;BME280_pressure;Samples;Min_cycle;Max_cycle;Signal;HPM_P1;HPM_P2
2022/08/12 00:44:32;;;;;;;17.97;16.87;;;18.70;91.10;;;;;;5045428;28;20617;-67
2022/08/12 00:47:01;;;;;;;17.73;16.37;;;18.60;91.40;;;;;;5061325;28;20978;-67
2022/08/12 00:49:30;;;;;;;17.10;16.00;;;18.50;90.50;;;;;;5060761;28;20638;-67
2022/08/12 00:52:08;;;;;;;18.57;17.30;;;18.50;90.50;;;;;;5059308;28;20486;-66
2022/08/12 00:54:43;;;;;;;18.33;16.83;;;18.50;90.20;;;;;;5063681;28;20498;-67
2022/08/12 00:57:12;;;;;;;18.40;17.00;;;18.50;91.50;;;;;;5058112;28;20454;-66
2022/08/12 00:59:47;;;;;;;19.03;16.80;;;18.50;93.30;;;;;;5058971;28;20463;-67
2022/08/12 01:02:22;;;;;;;17.83;16.60;;;18.40;94.30;;;;;;5058791;28;20897;-67
2022/08/12 01:13:11;;;;;;;19.80;18.00;;;18.00;99.90;;;;;;5060885;28;20498;-67
2022/08/12 01:15:39;;;;;;;17.87;16.77;;;17.90;99.90;;;;;;5062134;28;20490;-67
2022/08/12 01:18:08;;;;;;;17.37;16.40;;;17.90;99.90;;;;;;5064862;28;20952;-66
2022/08/12 01:20:40;;;;;;;18.93;17.63;;;17.80;99.90;;;;;;5059164;28;20466;-67
2022/08/12 01:23:37;;;;;;;18.53;17.43;;;17.70;99.90;;;;;;5057330;28;20561;-66
2022/08/12 01:26:07;;;;;;;18.20;17.00;;;17.60;99.90;;;;;;5062623;28;20462;-66
2022/08/12 01:28:35;;;;;;;19.30;18.10;;;17.50;99.90;;;;;;5062677;28;20459;-67
2022/08/12 01:31:07;;;;;;;19.17;17.77;;;17.40;99.90;;;;;;5058764;28;20502;-66
2022/08/12 01:33:41;;;;;;;19.50;18.00;;;17.40;99.90;;;;;;5068641;28;20477;-66
2022/08/12 01:36:10;;;;;;;18.97;17.10;;;17.30;99.90;;;;;;5067319;28;21015;-66
2022/08/12 01:38:40;;;;;;;20.03;17.97;;;17.30;99.90;;;;;;5059788;28;20469;-66
2022/08/12 01:41:15;;;;;;;18.57;17.47;;;17.20;99.90;;;;;;5059918;28;20783;-66
2022/08/12 01:43:43;;;;;;;17.83;16.73;;;17.10;99.90;;;;;;5054616;28;20853;-67
2022/08/12 01:46:21;;;;;;;17.83;16.63;;;17.00;99.90;;;;;;5065159;28;20478;-67
2022/08/12 01:49:03;;;;;;;18.83;17.63;;;17.00;99.90;;;;;;5062407;28;21014;-67
2022/08/12 01:51:39;;;;;;;19.13;17.73;;;16.90;99.90;;;;;;5054386;28;20789;-67
2022/08/12 01:54:09;;;;;;;19.33;17.70;;;16.80;99.90;;;;;;5066641;28;20863;-66
2022/08/12 01:56:42;;;;;;;19.30;17.90;;;16.80;99.90;;;;;;5064260;28;21013;-66
2022/08/12 02:01:58;;;;;;;18.40;17.10;;;16.70;99.90;;;;;;5054987;28;20953;-66
2022/08/12 02:13:31;;;;;;;19.27;18.17;;;16.50;99.90;;;;;;5062714;28;20535;-66
2022/08/12 02:16:02;;;;;;;19.10;17.90;;;16.40;99.90;;;;;;5051671;28;20495;-66
2022/08/12 02:18:44;;;;;;;19.73;18.30;;;16.40;99.90;;;;;;5060780;28;20463;-66
2022/08/12 02:21:20;;;;;;;20.07;18.30;;;16.40;99.90;;;;;;5066974;28;20458;-66
2022/08/12 02:23:49;;;;;;;19.73;18.33;;;16.40;99.90;;;;;;5061554;28;20489;-66
2022/08/12 02:26:18;;;;;;;19.93;18.73;;;16.40;99.90;;;;;;5061453;28;20459;-66
2022/08/12 02:28:47;;;;;;;19.13;17.70;;;16.40;99.90;;;;;;5064492;28;20460;-67
2022/08/12 02:31:14;;;;;;;19.50;18.20;;;16.40;99.90;;;;;;5060841;28;21345;-66
2022/08/12 02:33:42;;;;;;;19.13;17.67;;;16.40;99.90;;;;;;5058467;28;20493;-66
2022/08/12 02:36:09;;;;;;;19.27;17.90;;;16.40;99.90;;;;;;5058269;28;20470;-67
2022/08/12 02:38:37;;;;;;;20.03;18.70;;;16.40;99.90;;;;;;5062951;28;20455;-66
2022/08/12 02:41:07;;;;;;;19.07;17.77;;;16.40;99.90;;;;;;5062649;28;20455;-66
2022/08/12 02:43:39;;;;;;;20.17;18.63;;;16.40;99.90;;;;;;5057370;28;21504;-66
2022/08/12 02:46:09;;;;;;;20.30;18.80;;;16.20;99.90;;;;;;5061976;28;20456;-66
2022/08/12 02:48:44;;;;;;;23.50;19.03;;;16.10;99.90;;;;;;5058772;28;20480;-66
2022/08/12 02:51:13;;;;;;;21.20;19.40;;;16.00;99.90;;;;;;5062446;28;20993;-67
2022/08/12 02:53:40;;;;;;;21.80;20.20;;;16.00;99.90;;;;;;5057469;28;20454;-66
2022/08/12 02:56:09;;;;;;;19.63;18.13;;;16.00;99.90;;;;;;5059307;28;20479;-66
2022/08/12 02:58:36;;;;;;;21.07;19.67;;;16.00;99.90;;;;;;5063930;28;20455;-67
2022/08/12 03:01:08;;;;;;;20.17;18.73;;;15.90;99.90;;;;;;5056735;28;20465;-66
2022/08/12 03:03:37;;;;;;;20.50;18.77;;;15.90;99.90;;;;;;5068031;28;20832;-66
2022/08/12 03:06:07;;;;;;;20.60;18.87;;;15.80;99.90;;;;;;5058028;28;20464;-67
2022/08/12 03:08:42;;;;;;;20.23;18.73;;;15.80;99.90;;;;;;5064447;28;20463;-66
2022/08/12 03:11:16;;;;;;;20.63;18.93;;;15.80;99.90;;;;;;5064346;28;20561;-66
2022/08/12 03:13:51;;;;;;;20.47;19.10;;;15.70;99.90;;;;;;5055473;28;20521;-67
2022/08/12 03:16:20;;;;;;;20.47;19.17;;;15.70;99.90;;;;;;5063580;28;20489;-67
2022/08/12 03:18:50;;;;;;;20.60;19.10;;;15.60;99.90;;;;;;5059385;28;20459;-67
2022/08/12 03:21:19;;;;;;;20.80;18.80;;;15.60;99.90;;;;;;5060847;28;20973;-66
2022/08/12 03:23:47;;;;;;;20.77;19.07;;;15.50;99.90;;;;;;5057644;28;20495;-66
2022/08/12 03:26:15;;;;;;;20.47;19.10;;;15.50;99.90;;;;;;5063597;28;20462;-66
2022/08/12 03:28:52;;;;;;;20.30;18.90;;;15.40;99.90;;;;;;5055899;28;20537;-66
2022/08/12 03:31:24;;;;;;;20.20;18.83;;;15.40;99.90;;;;;;5054271;28;21071;-67
2022/08/12 03:33:52;;;;;;;20.60;19.13;;;15.30;99.90;;;;;;5066611;28;20486;-66
2022/08/12 03:36:21;;;;;;;20.80;19.40;;;15.30;99.90;;;;;;5063640;28;20467;-66
2022/08/12 03:39:14;;;;;;;21.13;19.73;;;15.30;99.90;;;;;;5058545;28;20460;-67
2022/08/12 03:41:40;;;;;;;19.53;18.23;;;15.30;99.90;;;;;;5051445;28;20528;-66
2022/08/12 04:00:52;;;;;;;20.60;19.40;;;15.60;99.90;;;;;;5061805;28;20454;-67
2022/08/12 04:06:09;;;;;;;21.00;19.60;;;15.60;99.90;;;;;;5053534;28;20799;-66
2022/08/12 04:08:36;;;;;;;19.90;18.70;;;15.60;99.90;;;;;;5054572;28;20454;-66
2022/08/12 04:13:50;;;;;;;19.97;18.63;;;15.60;99.90;;;;;;5056422;28;20961;-66
2022/08/12 04:16:17;;;;;;;20.47;19.13;;;15.60;99.90;;;;;;5038372;28;20527;-66
2022/08/12 04:18:46;;;;;;;20.30;18.90;;;15.60;99.90;;;;;;5035443;28;20829;-67
2022/08/12 04:21:12;;;;;;;20.33;19.03;;;15.70;99.90;;;;;;5037081;28;20478;-67
2022/08/12 04:23:41;;;;;;;21.30;19.90;;;15.70;99.90;;;;;;5035744;28;20495;-67
2022/08/12 04:26:08;;;;;;;22.03;20.33;;;15.70;99.90;;;;;;5035367;28;21060;-66
2022/08/12 04:28:36;;;;;;;20.73;19.43;;;15.70;99.90;;;;;;5034671;28;20463;-67
2022/08/12 04:31:03;;;;;;;21.47;19.50;;;15.80;99.90;;;;;;5036098;28;20455;-68
2022/08/12 04:33:31;;;;;;;21.23;19.40;;;15.90;99.90;;;;;;5035112;28;20736;-67
2022/08/12 04:35:59;;;;;;;21.07;18.87;;;15.90;99.90;;;;;;5035226;28;20912;-67
2022/08/12 04:38:28;;;;;;;20.33;18.93;;;16.00;99.90;;;;;;5035327;28;20471;-68
2022/08/12 04:40:56;;;;;;;21.97;20.23;;;16.10;99.90;;;;;;5034737;28;20459;-67
2022/08/12 04:43:24;;;;;;;20.60;19.00;;;16.10;99.90;;;;;;5036673;28;20463;-67
2022/08/12 04:45:51;;;;;;;21.20;19.13;;;16.10;99.90;;;;;;5036639;28;21136;-68
2022/08/12 04:48:19;;;;;;;21.63;19.57;;;16.20;99.90;;;;;;5035709;28;20532;-67
2022/08/12 04:50:46;;;;;;;21.93;20.00;;;16.20;99.90;;;;;;5036494;28;20470;-67
2022/08/12 04:53:14;;;;;;;20.53;19.10;;;16.30;99.90;;;;;;5036135;28;20467;-67
2022/08/12 04:55:44;;;;;;;20.83;18.63;;;16.40;99.90;;;;;;5034830;28;20989;-68
2022/08/12 04:58:12;;;;;;;20.70;19.00;;;16.50;99.90;;;;;;5037169;28;20563;-68
2022/08/12 05:00:39;;;;;;;20.73;19.43;;;16.50;99.90;;;;;;5039762;28;20456;-67
2022/08/12 05:03:07;;;;;;;19.67;18.33;;;16.60;99.90;;;;;;5039435;28;20474;-67
2022/08/12 05:05:35;;;;;;;20.50;18.73;;;16.70;99.90;;;;;;5039591;28;20478;-67
2022/08/12 05:08:02;;;;;;;20.70;19.10;;;16.70;99.90;;;;;;5039645;28;20878;-67
2022/08/12 05:10:30;;;;;;;20.87;19.30;;;16.80;99.90;;;;;;5037916;28;21004;-67
2022/08/12 05:13:02;;;;;;;20.87;18.87;;;16.90;99.90;;;;;;5037426;28;20458;-67
2022/08/12 05:15:29;;;;;;;19.47;18.20;;;17.00;99.90;;;;;;5030620;28;21076;-67
2022/08/12 05:17:56;;;;;;;18.57;17.57;;;17.10;99.90;;;;;;5038416;28;20991;-67
2022/08/12 05:20:24;;;;;;;19.93;18.60;;;17.20;99.90;;;;;;5039833;28;20989;-66
2022/08/12 05:23:04;;;;;;;20.20;18.77;;;17.30;99.90;;;;;;5038549;28;20466;-68
2022/08/12 05:25:32;;;;;;;19.97;18.70;;;17.40;99.90;;;;;;5037945;28;20510;-68
2022/08/12 05:28:00;;;;;;;20.07;18.97;;;17.60;99.90;;;;;;5037404;28;20455;-67
2022/08/12 05:30:26;;;;;;;20.90;19.37;;;17.70;99.90;;;;;;5038139;28;20468;-66
2022/08/12 05:32:54;;;;;;;21.80;20.10;;;17.80;99.90;;;;;;5038910;28;20879;-67
2022/08/12 05:35:21;;;;;;;20.47;19.10;;;17.90;99.90;;;;;;5038678;28;20466;-67
2022/08/12 05:38:54;;;;;;;20.43;19.13;;;18.00;99.90;;;;;;5037989;28;21077;-68
2022/08/12 05:40:37;;;;;;;21.77;20.20;;;18.10;99.90;;;;;;5030399;28;20863;-67
2022/08/12 05:43:04;;;;;;;22.63;20.77;;;18.30;99.90;;;;;;5039207;28;20501;-68
2022/08/12 05:45:31;;;;;;;21.93;20.40;;;18.40;99.90;;;;;;5038996;28;20610;-67
2022/08/12 05:47:58;;;;;;;24.17;22.07;;;18.50;99.90;;;;;;5039474;28;20505;-67
2022/08/12 05:50:25;;;;;;;24.07;22.33;;;18.70;99.90;;;;;;5037710;28;20466;-67
2022/08/12 05:52:52;;;;;;;29.03;25.40;;;18.80;99.90;;;;;;5039141;28;20467;-67
2022/08/12 05:55:21;;;;;;;27.07;24.90;;;19.10;99.90;;;;;;5037144;28;21207;-69
2022/08/12 05:57:54;;;;;;;30.30;27.30;;;19.30;99.90;;;;;;5038677;28;20477;-69
2022/08/12 06:00:24;;;;;;;32.43;27.13;;;19.50;99.90;;;;;;5032730;28;20463;-68
2022/08/12 06:02:52;;;;;;;28.93;26.40;;;19.70;99.90;;;;;;5059980;28;20456;-67
2022/08/12 06:05:19;;;;;;;30.07;27.27;;;19.80;99.90;;;;;;5063937;28;20524;-67
2022/08/12 06:07:48;;;;;;;30.27;26.97;;;20.00;99.90;;;;;;5038982;28;20598;-68
2022/08/12 06:10:16;;;;;;;30.47;27.57;;;20.20;99.90;;;;;;5035597;28;20850;-68
2022/08/12 06:12:48;;;;;;;33.93;27.00;;;20.40;99.90;;;;;;5034997;28;20482;-69
2022/08/12 06:15:16;;;;;;;27.73;25.03;;;20.60;99.90;;;;;;5034663;28;20491;-68
2022/08/12 06:17:44;;;;;;;27.17;24.43;;;20.70;99.90;;;;;;5035856;28;20499;-68
2022/08/12 06:20:14;;;;;;;27.53;24.77;;;20.80;99.90;;;;;;5033918;28;21030;-68
2022/08/12 06:22:41;;;;;;;26.17;23.60;;;21.00;99.90;;;;;;5034518;28;20460;-66
2022/08/12 06:25:08;;;;;;;27.33;24.33;;;21.10;99.90;;;;;;5032116;28;21128;-67
2022/08/12 06:27:43;;;;;;;25.30;22.60;;;21.30;99.90;;;;;;5036137;28;20462;-67
2022/08/12 06:30:11;;;;;;;41.40;26.03;;;21.50;99.90;;;;;;5036911;28;20477;-67
2022/08/12 06:32:40;;;;;;;35.53;25.00;;;21.60;99.90;;;;;;5033873;28;20813;-67
2022/08/12 06:35:07;;;;;;;29.07;23.83;;;21.70;99.90;;;;;;5035746;28;20459;-67
2022/08/12 06:37:40;;;;;;;29.57;23.60;;;21.90;99.90;;;;;;5035154;28;20466;-66
2022/08/12 06:40:09;;;;;;;25.93;23.03;;;22.00;99.90;;;;;;5036660;28;20518;-67
2022/08/12 06:42:48;;;;;;;27.87;22.83;;;22.10;99.90;;;;;;5035112;28;21076;-66
2022/08/12 06:45:15;;;;;;;26.20;20.90;;;22.20;99.90;;;;;;5033383;28;22093;-66
2022/08/12 06:47:43;;;;;;;22.30;20.70;;;22.40;99.90;;;;;;5033552;28;20477;-66
2022/08/12 06:50:12;;;;;;;23.10;20.40;;;22.60;99.90;;;;;;5035344;28;20462;-67
2022/08/12 06:52:39;;;;;;;22.60;20.67;;;22.80;99.90;;;;;;5035753;28;20953;-66
2022/08/12 06:55:07;;;;;;;21.47;19.43;;;23.00;99.10;;;;;;5035328;28;20467;-66
2022/08/12 06:57:53;;;;;;;23.60;20.20;;;23.10;98.20;;;;;;5034952;28;20470;-66
2022/08/12 07:00:22;;;;;;;22.00;19.97;;;23.30;98.10;;;;;;5034994;28;20462;-67
2022/08/12 07:02:50;;;;;;;21.10;19.23;;;23.40;96.60;;;;;;5034924;28;20513;-67
2022/08/12 07:05:23;;;;;;;21.27;19.20;;;23.70;96.90;;;;;;5035738;28;20487;-67
2022/08/12 07:08:05;;;;;;;20.20;18.07;;;23.70;94.90;;;;;;5035233;28;20466;-66
2022/08/12 07:10:56;;;;;;;23.17;18.87;;;23.90;93.40;;;;;;5034852;28;20476;-66
2022/08/12 07:13:23;;;;;;;19.73;17.93;;;24.10;92.80;;;;;;5026665;28;20892;-66
2022/08/12 07:15:54;;;;;;;19.53;17.67;;;24.30;92.40;;;;;;5034459;28;21453;-69
2022/08/12 07:18:28;;;;;;;19.80;18.37;;;24.40;91.30;;;;;;5036117;28;20588;-68
2022/08/12 07:20:56;;;;;;;21.23;19.10;;;24.50;91.10;;;;;;5034363;28;20477;-69
2022/08/12 07:23:24;;;;;;;20.33;18.20;;;24.80;91.20;;;;;;5035519;28;20752;-69
2022/08/12 07:25:51;;;;;;;21.60;19.00;;;25.00;90.70;;;;;;5034763;28;20972;-70
2022/08/12 07:28:22;;;;;;;23.47;19.77;;;25.20;88.60;;;;;;5034464;28;20464;-69
2022/08/12 07:30:50;;;;;;;22.57;20.10;;;25.20;88.40;;;;;;5033814;28;20481;-69
2022/08/12 07:33:21;;;;;;;30.97;19.60;;;25.30;87.60;;;;;;5035002;28;20464;-69
2022/08/12 07:35:52;;;;;;;27.50;18.67;;;25.40;87.80;;;;;;5033785;28;20563;-69
2022/08/12 07:38:23;;;;;;;21.57;17.37;;;25.50;86.70;;;;;;5034918;28;20555;-70
2022/08/12 07:40:50;;;;;;;23.73;18.83;;;25.50;83.40;;;;;;5034633;28;20752;-69
2022/08/12 07:43:17;;;;;;;22.80;18.43;;;25.50;81.20;;;;;;5034334;28;20469;-69
2022/08/12 07:45:45;;;;;;;20.70;18.83;;;25.60;81.00;;;;;;5033721;28;20540;-70
2022/08/12 07:48:12;;;;;;;34.80;19.63;;;25.80;82.60;;;;;;5034360;28;20482;-70
2022/08/12 07:50:39;;;;;;;20.97;18.97;;;26.10;79.50;;;;;;5034754;28;20463;-69
2022/08/12 07:53:07;;;;;;;20.50;18.93;;;26.20;77.90;;;;;;5033259;28;20511;-69
2022/08/12 07:55:35;;;;;;;20.33;18.47;;;26.30;77.30;;;;;;5033868;28;21097;-69
2022/08/12 07:58:04;;;;;;;21.97;19.10;;;26.50;75.90;;;;;;5033888;28;20493;-69
2022/08/12 08:00:33;;;;;;;26.67;18.40;;;26.80;73.70;;;;;;5033452;28;21060;-70
2022/08/12 08:03:01;;;;;;;27.70;18.53;;;26.70;70.10;;;;;;5056855;28;20459;-69
2022/08/12 08:05:32;;;;;;;22.20;18.40;;;26.80;69.30;;;;;;5050472;28;20832;-70
2022/08/12 08:08:00;;;;;;;25.27;17.83;;;26.90;70.70;;;;;;5033295;28;20691;-70
2022/08/12 08:10:29;;;;;;;19.13;17.33;;;27.00;70.20;;;;;;5033560;28;20460;-69
2022/08/12 08:12:57;;;;;;;19.37;17.90;;;27.00;66.40;;;;;;5033627;28;20460;-70
2022/08/12 08:15:26;;;;;;;17.87;16.50;;;27.20;65.80;;;;;;5033137;28;20586;-70
2022/08/12 08:18:00;;;;;;;18.33;16.77;;;27.40;64.90;;;;;;5034614;28;21011;-70
2022/08/12 08:20:29;;;;;;;17.57;16.20;;;27.40;63.50;;;;;;5034207;28;21013;-70
2022/08/12 08:22:57;;;;;;;17.20;15.80;;;27.40;61.60;;;;;;5033981;28;20536;-69
2022/08/12 08:25:30;;;;;;;17.20;16.30;;;27.60;62.50;;;;;;5025898;28;20495;-69
2022/08/12 08:27:59;;;;;;;17.37;16.23;;;27.80;61.60;;;;;;5034627;28;20558;-69
2022/08/12 08:30:27;;;;;;;17.20;16.10;;;28.00;60.70;;;;;;5032009;28;20468;-69
2022/08/12 08:32:55;;;;;;;17.63;16.73;;;28.20;59.60;;;;;;5038384;28;20467;-69
2022/08/12 08:35:23;;;;;;;19.03;16.47;;;28.40;58.90;;;;;;5037456;28;21032;-69
2022/08/12 08:37:50;;;;;;;18.13;16.80;;;28.30;57.80;;;;;;5038645;28;20474;-69
2022/08/12 08:43:06;;;;;;;18.10;16.50;;;28.40;56.90;;;;;;5037490;28;20494;-70
2022/08/12 08:45:32;;;;;;;16.97;15.87;;;28.80;55.90;;;;;;5036696;28;20617;-70
2022/08/12 08:47:59;;;;;;;17.23;16.10;;;29.30;54.50;;;;;;5036277;28;20493;-70
2022/08/12 08:50:27;;;;;;;18.10;16.90;;;29.80;53.80;;;;;;5036556;28;20982;-70
2022/08/12 08:52:54;;;;;;;17.87;16.47;;;30.60;51.70;;;;;;5038680;28;20515;-69
2022/08/12 08:55:21;;;;;;;17.53;16.17;;;31.10;50.90;;;;;;5036145;28;20475;-70
2022/08/12 08:57:51;;;;;;;17.13;16.13;;;31.50;49.10;;;;;;5036741;28;20478;-70
2022/08/12 09:00:21;;;;;;;17.53;16.50;;;32.00;47.80;;;;;;5034816;28;21865;-70
2022/08/12 09:02:49;;;;;;;17.03;16.13;;;32.70;47.20;;;;;;5063669;28;20467;-70
2022/08/12 09:05:17;;;;;;;17.20;16.20;;;33.40;44.80;;;;;;5063738;28;20491;-67
2022/08/12 09:07:45;;;;;;;17.20;16.10;;;33.70;42.50;;;;;;5065139;28;20536;-67
2022/08/12 09:10:15;;;;;;;17.47;16.47;;;33.90;41.90;;;;;;5062703;28;20864;-68
2022/08/12 09:15:29;;;;;;;17.13;15.90;;;34.00;41.10;;;;;;5033322;28;20994;-68
2022/08/12 09:17:57;;;;;;;18.00;16.70;;;34.00;39.30;;;;;;5032989;28;21191;-68
2022/08/12 09:20:26;;;;;;;18.77;16.93;;;34.80;38.90;;;;;;5033711;28;20467;-68
2022/08/12 09:22:53;;;;;;;17.70;16.30;;;34.50;37.70;;;;;;5031603;28;20860;-67
2022/08/12 09:25:20;;;;;;;18.83;17.30;;;34.40;37.60;;;;;;5033113;28;20580;-68
2022/08/12 09:27:47;;;;;;;18.07;17.00;;;34.40;38.00;;;;;;5046022;28;20997;-68
2022/08/12 09:30:16;;;;;;;22.00;16.83;;;34.50;37.30;;;;;;5033494;28;20471;-69
2022/08/12 09:32:49;;;;;;;16.57;15.77;;;34.40;36.60;;;;;;5033807;28;20466;-68
2022/08/12 09:35:18;;;;;;;16.90;16.10;;;34.40;36.20;;;;;;5034506;28;20459;-68
2022/08/12 09:37:45;;;;;;;18.80;17.40;;;34.80;36.40;;;;;;5034175;28;20465;-67
2022/08/12 09:40:13;;;;;;;18.03;16.67;;;35.30;35.60;;;;;;5034403;28;20911;-68
2022/08/12 09:45:25;;;;;;;17.40;16.07;;;35.80;34.80;;;;;;5034763;28;21188;-69
2022/08/12 09:47:54;;;;;;;17.50;16.40;;;36.20;34.20;;;;;;5035925;28;20478;-69
2022/08/12 09:50:21;;;;;;;17.10;16.17;;;36.50;33.30;;;;;;5035620;28;20490;-69
2022/08/12 09:53:03;;;;;;;17.13;16.00;;;36.10;32.80;;;;;;5035277;28;20502;-69
2022/08/12 09:55:31;;;;;;;18.10;16.63;;;36.30;33.30;;;;;;5037013;28;20489;-69
2022/08/12 09:57:58;;;;;;;17.97;16.83;;;36.70;31.80;;;;;;5035993;28;20466;-69
2022/08/12 10:00:25;;;;;;;16.73;15.63;;;37.10;32.20;;;;;;5035387;28;20467;-69
2022/08/12 10:03:02;;;;;;;16.67;15.70;;;37.20;30.90;;;;;;5036878;28;20467;-69
2022/08/12 10:05:35;;;;;;;18.23;16.17;;;37.00;30.40;;;;;;5036809;28;20483;-69
2022/08/12 10:08:03;;;;;;;17.10;16.00;;;36.60;30.40;;;;;;5036982;28;20732;-69
2022/08/12 10:10:30;;;;;;;17.80;16.27;;;36.60;30.60;;;;;;5033636;28;20957;-69
2022/08/12 10:15:43;;;;;;;16.83;15.80;;;37.30;29.70;;;;;;5033596;28;20497;-69
2022/08/12 10:18:12;;;;;;;16.37;15.57;;;37.40;29.30;;;;;;5033168;28;20524;-68
2022/08/12 10:20:39;;;;;;;16.30;15.07;;;37.50;29.80;;;;;;5032999;28;20451;-69
2022/08/12 10:23:07;;;;;;;16.93;15.73;;;37.00;28.90;;;;;;5033701;28;20480;-69
2022/08/12 10:31:03;;;;;;;16.57;15.37;;;37.20;29.30;;;;;;5061717;28;20515;-69
2022/08/12 10:33:32;;;;;;;16.37;15.27;;;37.50;29.10;;;;;;5061729;28;20463;-69
2022/08/12 10:36:00;;;;;;;17.20;15.50;;;37.70;28.70;;;;;;5054700;28;20482;-69
2022/08/12 10:38:27;;;;;;;15.83;14.93;;;37.40;28.70;;;;;;5035096;28;21215;-68
2022/08/12 10:43:41;;;;;;;16.73;15.67;;;37.20;28.70;;;;;;5035346;28;20766;-69
2022/08/12 10:46:08;;;;;;;16.40;15.27;;;36.40;29.00;;;;;;5034671;28;20658;-68
2022/08/12 10:48:37;;;;;;;16.27;15.27;;;36.40;29.60;;;;;;5034770;28;20523;-69
2022/08/12 10:51:04;;;;;;;16.20;15.10;;;35.60;29.40;;;;;;5034773;28;20471;-69
2022/08/12 10:53:32;;;;;;;16.60;15.60;;;35.50;30.20;;;;;;5035954;28;20992;-69
2022/08/12 10:55:59;;;;;;;15.70;14.97;;;35.60;29.50;;;;;;5033719;28;20497;-69
2022/08/12 10:58:27;;;;;;;15.30;14.50;;;36.20;29.80;;;;;;5034742;28;20815;-68
2022/08/12 11:00:54;;;;;;;16.00;15.20;;;36.60;29.00;;;;;;5036835;28;20469;-67
2022/08/12 11:03:21;;;;;;;15.33;14.53;;;37.10;28.40;;;;;;5062632;28;20473;-68
2022/08/12 11:05:49;;;;;;;16.00;15.13;;;37.10;28.90;;;;;;5063505;28;20589;-68
2022/08/12 11:08:16;;;;;;;16.97;15.37;;;36.60;28.40;;;;;;5063356;28;20484;-68
2022/08/12 11:10:44;;;;;;;15.90;15.10;;;36.10;28.30;;;;;;5049942;28;21292;-69
2022/08/12 11:13:10;;;;;;;15.80;15.00;;;36.30;28.40;;;;;;5035866;28;20543;-69
2022/08/12 11:15:47;;;;;;;16.23;14.83;;;36.40;28.30;;;;;;5046087;27;20564;-70
2022/08/12 11:18:15;;;;;;;16.00;14.87;;;37.00;27.90;;;;;;5044307;28;20966;-69
2022/08/12 11:20:42;;;;;;;16.13;14.97;;;36.80;27.30;;;;;;5044123;28;20470;-69
2022/08/12 11:23:10;;;;;;;15.90;15.10;;;36.20;27.70;;;;;;5045201;28;20621;-71
2022/08/12 11:25:36;;;;;;;16.80;15.50;;;36.00;28.50;;;;;;5045456;28;20471;-70
2022/08/12 11:28:04;;;;;;;16.40;15.63;;;36.30;28.60;;;;;;5044361;28;20471;-67
2022/08/12 11:30:31;;;;;;;16.70;15.90;;;37.50;28.00;;;;;;5074164;28;20467;-67
2022/08/12 11:33:00;;;;;;;17.37;16.27;;;38.10;27.30;;;;;;5074349;28;20466;-67
2022/08/12 11:35:27;;;;;;;16.80;15.80;;;38.40;26.50;;;;;;5077293;28;21016;-67
2022/08/12 11:37:54;;;;;;;16.37;15.47;;;38.60;26.50;;;;;;5068149;28;20517;-68
2022/08/12 11:40:21;;;;;;;16.43;15.63;;;38.30;26.00;;;;;;5043929;28;20454;-68
2022/08/12 11:42:49;;;;;;;16.77;15.80;;;37.40;26.60;;;;;;5044357;28;20453;-67
2022/08/12 11:45:17;;;;;;;17.70;16.50;;;37.40;26.50;;;;;;5044445;28;20528;-68
2022/08/12 11:47:44;;;;;;;16.97;15.50;;;37.90;27.10;;;;;;5045570;28;20604;-68
2022/08/12 11:50:13;;;;;;;16.77;15.97;;;38.80;25.90;;;;;;5040684;28;20712;-67
2022/08/12 11:52:40;;;;;;;16.00;15.30;;;39.60;25.80;;;;;;5042395;28;20495;-67
2022/08/12 11:55:07;;;;;;;16.20;15.10;;;39.90;25.50;;;;;;5043815;28;20489;-68
2022/08/12 11:57:47;;;;;;;16.50;15.60;;;39.90;24.70;;;;;;5042866;28;20465;-67
2022/08/12 12:00:15;;;;;;;16.17;15.37;;;39.20;25.40;;;;;;5042146;28;20978;-67
2022/08/12 12:02:42;;;;;;;15.43;14.73;;;39.20;24.60;;;;;;5041446;28;20471;-67
2022/08/12 12:05:09;;;;;;;16.80;15.80;;;39.20;25.10;;;;;;5043138;28;20459;-68
2022/08/12 12:07:39;;;;;;;16.13;15.33;;;37.70;25.70;;;;;;5043932;28;20466;-68
2022/08/12 12:10:07;;;;;;;17.23;15.80;;;38.40;26.00;;;;;;5042907;28;21084;-68
2022/08/12 12:12:34;;;;;;;16.30;15.50;;;39.10;25.10;;;;;;5040398;28;20463;-68
2022/08/12 12:15:02;;;;;;;16.50;15.43;;;38.90;25.10;;;;;;5040932;28;21597;-68
2022/08/12 12:17:29;;;;;;;16.40;15.60;;;39.20;24.40;;;;;;5041431;28;20527;-68
2022/08/12 12:19:56;;;;;;;17.00;15.87;;;39.70;24.90;;;;;;5041023;28;20687;-68
2022/08/12 12:22:23;;;;;;;16.80;15.80;;;40.10;24.10;;;;;;5040279;28;20794;-68
2022/08/12 12:24:52;;;;;;;16.03;15.23;;;40.70;23.60;;;;;;5040237;28;20471;-68
2022/08/12 12:27:20;;;;;;;16.47;15.07;;;41.60;23.00;;;;;;5026322;28;21173;-69
2022/08/12 12:29:48;;;;;;;16.67;15.20;;;41.50;23.50;;;;;;5044056;28;20470;-68
2022/08/12 12:32:15;;;;;;;16.07;15.27;;;41.80;23.00;;;;;;5054293;28;20459;-68
2022/08/12 12:34:42;;;;;;;16.30;15.40;;;41.60;22.40;;;;;;5041757;28;20506;-68
2022/08/12 12:37:12;;;;;;;16.70;15.40;;;41.70;22.10;;;;;;5028608;28;20463;-68
2022/08/12 12:39:39;;;;;;;16.27;15.50;;;41.40;22.50;;;;;;5028315;28;21168;-68
2022/08/12 12:42:07;;;;;;;15.53;14.43;;;42.10;21.90;;;;;;5026613;28;21023;-68
2022/08/12 12:44:35;;;;;;;15.47;14.57;;;40.70;21.90;;;;;;5030005;28;20467;-67
2022/08/12 12:47:02;;;;;;;15.70;14.60;;;40.70;22.20;;;;;;5027597;28;20488;-67
2022/08/12 12:49:28;;;;;;;15.63;14.93;;;40.90;22.80;;;;;;5027757;28;20484;-68
2022/08/12 12:51:56;;;;;;;15.50;14.60;;;41.10;22.30;;;;;;5027833;28;20492;-68
2022/08/12 12:54:23;;;;;;;15.70;14.70;;;41.20;22.30;;;;;;5027844;28;20495;-69
2022/08/12 12:56:53;;;;;;;15.40;14.60;;;41.90;22.60;;;;;;5027925;28;20562;-69
2022/08/12 12:59:22;;;;;;;16.50;15.30;;;41.20;22.00;;;;;;5027640;28;20467;-68
2022/08/12 13:01:49;;;;;;;15.83;14.77;;;41.20;21.90;;;;;;5038839;28;20463;-68
2022/08/12 13:04:17;;;;;;;15.80;14.90;;;41.00;21.80;;;;;;5054093;28;20471;-67
2022/08/12 13:06:51;;;;;;;15.73;14.60;;;41.10;22.10;;;;;;5058979;28;20979;-67
2022/08/12 13:09:18;;;;;;;15.20;14.40;;;40.80;22.40;;;;;;5058018;28;20890;-68
2022/08/12 13:11:47;;;;;;;15.90;14.80;;;40.90;22.00;;;;;;5040266;28;20464;-67
2022/08/12 13:14:15;;;;;;;15.50;14.60;;;41.60;21.10;;;;;;5027185;28;20506;-68
2022/08/12 13:16:43;;;;;;;16.40;15.30;;;41.90;21.50;;;;;;5027179;28;20805;-67
2022/08/12 13:19:10;;;;;;;14.80;14.10;;;42.30;21.10;;;;;;5025752;28;20495;-68
2022/08/12 13:22:15;;;;;;;15.63;14.50;;;42.20;21.20;;;;;;5026435;28;20512;-68
2022/08/12 13:24:25;;;;;;;14.63;14.00;;;42.60;20.90;;;;;;5027532;28;20471;-68
2022/08/12 13:26:52;;;;;;;15.00;14.30;;;42.60;21.20;;;;;;5026308;28;20467;-68
2022/08/12 13:29:20;;;;;;;14.70;14.10;;;43.30;20.90;;;;;;5042862;28;20543;-68
2022/08/12 13:31:49;;;;;;;14.83;14.23;;;42.90;20.30;;;;;;5054722;28;20471;-67
2022/08/12 13:34:20;;;;;;;14.93;14.13;;;42.40;20.00;;;;;;5040005;28;20931;-68
2022/08/12 13:36:46;;;;;;;16.07;14.90;;;42.60;19.90;;;;;;5026802;28;20950;-68
2022/08/12 13:39:13;;;;;;;15.33;14.53;;;42.80;20.60;;;;;;5025999;28;20901;-68
2022/08/12 13:41:40;;;;;;;15.37;14.67;;;43.00;20.00;;;;;;5025952;28;20478;-68
2022/08/12 13:44:10;;;;;;;15.00;14.33;;;43.30;19.70;;;;;;5028264;28;20482;-68
2022/08/12 13:46:39;;;;;;;14.57;13.77;;;43.40;19.80;;;;;;5026968;28;20471;-68
2022/08/12 13:49:10;;;;;;;15.97;15.00;;;43.30;19.60;;;;;;5040561;28;20557;-68
2022/08/12 13:51:37;;;;;;;15.23;14.40;;;43.00;19.80;;;;;;5064593;28;20473;-68
2022/08/12 13:54:04;;;;;;;15.40;14.70;;;42.90;20.10;;;;;;5043324;28;20468;-68
2022/08/12 13:56:33;;;;;;;15.07;14.33;;;43.50;19.70;;;;;;5026632;28;20498;-67
2022/08/12 13:59:00;;;;;;;15.67;14.97;;;43.80;19.20;;;;;;5023629;28;20482;-69
2022/08/12 14:01:28;;;;;;;15.67;14.80;;;43.20;19.00;;;;;;5021415;28;20479;-67
2022/08/12 14:03:55;;;;;;;15.50;14.70;;;42.90;19.50;;;;;;5025937;28;21033;-68
2022/08/12 14:06:23;;;;;;;15.73;14.73;;;42.70;19.30;;;;;;5026553;28;20463;-67
2022/08/12 14:08:50;;;;;;;16.40;15.57;;;41.40;20.10;;;;;;5025872;28;20490;-68
2022/08/12 14:11:17;;;;;;;16.37;15.37;;;41.20;20.40;;;;;;5025719;28;20583;-67
2022/08/12 14:13:46;;;;;;;16.13;15.43;;;41.90;19.90;;;;;;5027127;28;20491;-68
2022/08/12 14:16:16;;;;;;;14.97;14.17;;;42.50;19.60;;;;;;5027262;28;20488;-68
2022/08/12 14:18:44;;;;;;;16.33;15.53;;;42.80;19.40;;;;;;5026696;28;20619;-69
2022/08/12 14:21:13;;;;;;;14.90;14.20;;;42.90;19.50;;;;;;5026004;28;20468;-68
2022/08/12 14:23:43;;;;;;;16.00;15.10;;;42.70;19.00;;;;;;5026098;28;20478;-68